Time;durP1;ratioP1;P1;durP2;ratioP2;P2;SDS_P1;SDS_P2;PMS_P1;PMS_P2;Temp;Humidity;BMP_temperature;BMP_pressure;BME280_temperature;BME280_humidity;BME280_pressure;Samples;Min_cycle;Max_cycle;Signal;HPM_P1;HPM_P2
2022/06/11 00:01:48;;;;;;;4.63;3.07;;;22.70;61.90;24.30;101315.00;;;;4982273;28;20223;-44
2022/06/11 00:04:21;;;;;;;3.83;2.73;;;22.70;62.20;24.30;101322.00;;;;4968668;28;20649;-44
2022/06/11 00:06:50;;;;;;;3.77;2.90;;;22.70;62.10;24.30;101314.00;;;;4968282;28;20157;-43
2022/06/11 00:09:17;;;;;;;4.40;2.63;;;22.70;62.20;24.30;101317.00;;;;4968370;28;20569;-43
2022/06/11 00:11:43;;;;;;;4.17;2.70;;;22.80;62.30;24.30;101310.00;;;;4968550;28;20192;-44
2022/06/11 00:14:09;;;;;;;4.10;2.90;;;22.80;62.40;24.30;101313.00;;;;4968148;28;20227;-43
2022/06/11 00:16:34;;;;;;;3.57;2.57;;;22.80;62.30;24.30;101317.00;;;;4967770;28;20543;-44
2022/06/11 00:19:00;;;;;;;6.50;2.90;;;22.80;62.10;24.30;101325.00;;;;4967669;28;20718;-44
2022/06/11 00:21:30;;;;;;;4.00;2.83;;;22.80;62.00;24.30;101322.00;;;;4967606;28;20569;-44
2022/06/11 00:23:55;;;;;;;3.30;2.77;;;22.80;62.30;24.30;101320.00;;;;4967762;28;20665;-44
2022/06/11 00:26:22;;;;;;;3.27;2.60;;;22.90;62.20;24.30;101312.00;;;;4967804;28;20211;-44
2022/06/11 00:28:48;;;;;;;3.23;2.60;;;22.80;62.00;24.30;101317.00;;;;4967260;28;20172;-44
2022/06/11 00:31:14;;;;;;;4.00;2.70;;;22.90;61.80;24.30;101312.00;;;;4983894;28;20177;-45
2022/06/11 00:33:39;;;;;;;3.10;2.80;;;22.90;61.70;24.30;101320.00;;;;4967694;28;20248;-44
2022/06/11 00:36:06;;;;;;;4.63;2.70;;;22.90;61.80;24.30;101313.00;;;;4967913;28;20769;-44
2022/06/11 00:38:32;;;;;;;3.90;2.77;;;22.90;61.70;24.30;101318.00;;;;4966991;28;20622;-43
2022/06/11 00:40:58;;;;;;;3.13;2.57;;;22.80;61.90;24.30;101309.00;;;;4967635;28;20235;-44
2022/06/11 00:43:25;;;;;;;4.07;2.90;;;22.90;62.00;24.30;101314.00;;;;4967380;28;20201;-45
2022/06/11 00:46:26;;;;;;;3.70;2.80;;;22.90;61.90;24.30;101309.00;;;;4984243;28;20173;-43
2022/06/11 00:48:52;;;;;;;4.23;2.60;;;22.90;61.80;24.20;101302.00;;;;4968954;28;20560;-43
2022/06/11 00:51:21;;;;;;;4.53;2.80;;;22.80;62.10;24.20;101308.00;;;;4984052;28;20196;-43
2022/06/11 00:54:00;;;;;;;3.20;2.50;;;22.80;62.20;24.20;101314.00;;;;4983535;28;20433;-44
2022/06/11 00:56:36;;;;;;;5.40;2.70;;;22.80;62.30;24.20;101308.00;;;;4983039;28;20157;-44
2022/06/11 00:59:05;;;;;;;2.60;2.40;;;22.80;62.10;24.20;101302.00;;;;4982384;28;20675;-44
2022/06/11 01:01:31;;;;;;;3.93;2.80;;;22.90;62.10;24.20;101312.00;;;;4983040;28;20669;-43
2022/06/11 01:03:58;;;;;;;3.60;2.63;;;22.90;62.10;24.20;101311.00;;;;4968169;28;20165;-44
2022/06/11 01:06:42;;;;;;;4.90;2.73;;;22.90;62.10;24.20;101306.00;;;;4967146;28;20393;-43
2022/06/11 01:09:29;;;;;;;3.33;2.70;;;22.90;61.90;24.20;101300.00;;;;4979739;28;20197;-43
2022/06/11 01:12:13;;;;;;;3.47;2.60;;;22.90;62.10;24.20;101309.00;;;;4981022;28;20189;-45
2022/06/11 01:14:46;;;;;;;3.13;2.60;;;22.90;62.10;24.20;101301.00;;;;4981813;28;20191;-45
2022/06/11 01:17:36;;;;;;;4.37;2.50;;;22.80;62.20;24.20;101306.00;;;;4982343;28;20153;-44
2022/06/11 01:20:24;;;;;;;3.60;2.57;;;22.80;62.50;24.10;101303.00;;;;4967518;28;20173;-44
2022/06/11 01:23:08;;;;;;;3.87;2.83;;;22.70;62.60;24.10;101307.00;;;;4966690;28;20580;-44
2022/06/11 01:25:57;;;;;;;3.23;2.50;;;22.80;62.80;24.10;101312.00;;;;4967107;28;20165;-44
2022/06/11 01:28:41;;;;;;;3.67;2.50;;;22.80;62.60;24.10;101304.00;;;;4967597;28;20696;-43
2022/06/11 01:31:31;;;;;;;3.40;2.53;;;22.80;62.40;24.10;101305.00;;;;4967209;28;20200;-44
2022/06/11 01:34:20;;;;;;;4.33;2.50;;;22.80;62.40;24.10;101303.00;;;;4981784;28;20154;-44
2022/06/11 01:36:47;;;;;;;3.57;2.60;;;22.80;62.50;24.10;101309.00;;;;4981461;28;20177;-43
2022/06/11 01:39:49;;;;;;;3.70;2.50;;;22.80;62.70;24.10;101312.00;;;;4982461;28;20196;-43
2022/06/11 01:42:34;;;;;;;3.30;2.50;;;22.80;62.70;24.10;101304.00;;;;4965989;28;20328;-45
2022/06/11 01:45:26;;;;;;;2.87;2.43;;;22.80;62.70;24.10;101312.00;;;;4979661;28;20240;-45
2022/06/11 01:47:52;;;;;;;3.00;2.33;;;22.80;62.70;24.10;101306.00;;;;4970324;28;20225;-43
2022/06/11 01:50:20;;;;;;;3.37;2.53;;;22.80;62.70;24.10;101311.00;;;;4982300;28;20325;-43
2022/06/11 01:53:07;;;;;;;3.43;2.50;;;22.80;62.80;24.10;101305.00;;;;4968602;28;20243;-43
2022/06/11 01:56:25;;;;;;;3.23;2.50;;;22.80;62.80;24.10;101316.00;;;;4968293;28;20196;-44
2022/06/11 01:59:18;;;;;;;3.20;2.50;;;22.80;62.90;24.00;101316.00;;;;4967270;28;20185;-44
2022/06/11 02:02:16;;;;;;;3.40;2.40;;;22.80;62.80;24.00;101310.00;;;;4979672;28;20263;-44
2022/06/11 02:04:58;;;;;;;2.63;2.40;;;22.80;62.90;24.00;101311.00;;;;4980678;28;20187;-43
2022/06/11 02:08:25;;;;;;;3.00;2.50;;;22.70;62.90;24.00;101305.00;;;;4980843;28;20197;-44
2022/06/11 02:11:02;;;;;;;3.50;2.50;;;22.70;63.80;24.00;101313.00;;;;4975954;28;20292;-44
2022/06/11 02:13:56;;;;;;;3.87;2.60;;;22.80;63.10;24.00;101317.00;;;;4967191;28;20200;-45
2022/06/11 02:16:42;;;;;;;4.53;2.53;;;22.70;63.20;24.00;101309.00;;;;4968503;28;20239;-44
2022/06/11 02:19:12;;;;;;;3.67;2.50;;;22.70;63.30;24.00;101324.00;;;;4982969;28;20605;-44
2022/06/11 02:21:44;;;;;;;2.60;2.40;;;22.70;63.30;24.00;101316.00;;;;4970496;28;20211;-43
2022/06/11 02:24:17;;;;;;;2.80;2.30;;;22.70;63.30;24.00;101318.00;;;;5001819;28;20161;-42
2022/06/11 02:26:47;;;;;;;3.83;2.30;;;22.70;63.50;24.00;101310.00;;;;4988217;28;20165;-43
2022/06/11 02:29:15;;;;;;;3.40;2.47;;;22.70;63.60;24.00;101320.00;;;;4984698;28;20227;-44
2022/06/11 02:31:56;;;;;;;3.63;2.40;;;22.70;63.60;24.00;101318.00;;;;4984400;28;20173;-44
2022/06/11 02:34:23;;;;;;;4.53;2.60;;;22.70;63.60;23.90;101323.00;;;;4985132;28;20166;-46
2022/06/11 02:37:05;;;;;;;4.53;2.40;;;22.70;63.70;23.90;101315.00;;;;4984472;28;20264;-45
2022/06/11 02:39:34;;;;;;;3.33;2.50;;;22.70;63.70;23.90;101319.00;;;;4969480;28;20378;-45
2022/06/11 02:42:02;;;;;;;2.87;2.50;;;22.70;63.70;23.90;101332.00;;;;4984023;28;20516;-45
2022/06/11 02:44:27;;;;;;;2.77;2.43;;;22.60;63.90;23.90;101326.00;;;;4969645;28;20176;-45
2022/06/11 02:46:53;;;;;;;3.50;2.47;;;22.60;63.90;23.90;101327.00;;;;4970078;28;20459;-44
2022/06/11 02:49:22;;;;;;;3.37;2.50;;;22.60;64.00;23.90;101338.00;;;;4984743;28;20618;-43
2022/06/11 02:51:49;;;;;;;2.67;2.47;;;22.70;64.00;23.90;101332.00;;;;4969299;28;20280;-44
2022/06/11 02:54:15;;;;;;;3.07;2.50;;;22.60;64.00;23.90;101325.00;;;;4969690;28;20546;-45
2022/06/11 02:56:41;;;;;;;3.13;2.57;;;22.60;64.00;23.90;101343.00;;;;4988623;28;20200;-44
2022/06/11 02:59:07;;;;;;;4.40;2.57;;;22.60;64.00;23.90;101326.00;;;;5004339;28;20281;-44
2022/06/11 03:01:33;;;;;;;3.27;2.37;;;22.60;64.00;23.90;101333.00;;;;4980426;28;20244;-44
2022/06/11 03:03:59;;;;;;;5.40;2.60;;;22.60;64.00;23.90;101324.00;;;;4970954;28;20185;-44
2022/06/11 03:06:25;;;;;;;3.10;2.50;;;22.60;64.10;23.90;101339.00;;;;4983976;28;20843;-44
2022/06/11 03:08:52;;;;;;;3.53;2.40;;;22.60;64.00;23.90;101325.00;;;;4969421;28;20169;-44
2022/06/11 03:11:18;;;;;;;2.93;2.40;;;22.60;64.00;23.90;101332.00;;;;4969646;28;20181;-44
2022/06/11 03:13:43;;;;;;;3.63;2.50;;;22.60;64.20;23.90;101334.00;;;;4969545;28;20204;-44
2022/06/11 03:16:10;;;;;;;3.00;2.40;;;22.60;64.30;23.90;101333.00;;;;4969609;28;20165;-44
2022/06/11 03:18:36;;;;;;;2.87;2.20;;;22.50;64.30;23.90;101332.00;;;;4969344;28;20188;-44
2022/06/11 03:21:02;;;;;;;3.77;2.40;;;22.50;64.30;23.80;101332.00;;;;4969821;28;20181;-44
2022/06/11 03:23:29;;;;;;;4.23;2.50;;;22.50;64.30;23.80;101330.00;;;;4971578;28;20189;-44
2022/06/11 03:25:56;;;;;;;4.43;2.40;;;22.50;64.40;23.80;101331.00;;;;4970981;28;20180;-45
2022/06/11 03:28:24;;;;;;;2.50;2.30;;;22.50;64.50;23.80;101337.00;;;;4969475;28;20195;-44
2022/06/11 03:30:50;;;;;;;3.60;2.40;;;22.50;64.50;23.80;101333.00;;;;4968802;28;20705;-44
2022/06/11 03:33:16;;;;;;;3.13;2.40;;;22.50;64.40;23.80;101338.00;;;;4983697;28;20283;-44
2022/06/11 03:35:44;;;;;;;5.17;2.57;;;22.50;64.50;23.80;101330.00;;;;4968405;28;20173;-43
2022/06/11 03:38:10;;;;;;;4.67;2.50;;;22.50;64.60;23.80;101341.00;;;;4968459;28;20272;-43
2022/06/11 03:40:36;;;;;;;5.00;2.70;;;22.50;65.70;23.80;101336.00;;;;4983495;28;20722;-44
2022/06/11 03:43:02;;;;;;;3.20;2.50;;;22.50;64.80;23.80;101338.00;;;;4968593;28;20203;-44
2022/06/11 03:45:29;;;;;;;2.97;2.40;;;22.50;64.70;23.80;101351.00;;;;4968510;28;20195;-45
2022/06/11 03:47:55;;;;;;;3.07;2.50;;;22.50;64.30;23.80;101336.00;;;;4968455;28;20177;-44
2022/06/11 03:50:25;;;;;;;3.03;2.60;;;22.50;64.30;23.80;101361.00;;;;4968501;28;20251;-44
2022/06/11 03:52:51;;;;;;;4.03;3.63;;;22.50;64.40;23.80;101348.00;;;;4968302;28;20208;-45
2022/06/11 03:55:17;;;;;;;3.80;3.50;;;22.50;64.50;23.80;101360.00;;;;4968530;28;20161;-43
2022/06/11 03:57:44;;;;;;;3.93;3.20;;;22.50;64.80;23.80;101355.00;;;;4968680;28;20165;-43
2022/06/11 04:00:13;;;;;;;3.83;3.00;;;22.50;64.80;23.80;101350.00;;;;4968844;28;20668;-44
2022/06/11 04:02:39;;;;;;;3.43;3.10;;;22.50;64.90;23.70;101357.00;;;;4968684;28;20220;-44
2022/06/11 04:05:06;;;;;;;4.10;3.20;;;22.50;64.80;23.70;101365.00;;;;4968874;28;20659;-45
2022/06/11 04:07:32;;;;;;;4.47;3.00;;;22.50;64.90;23.70;101366.00;;;;4969219;28;20183;-44
2022/06/11 04:09:58;;;;;;;3.07;2.60;;;22.50;65.00;23.70;101355.00;;;;4969510;28;20284;-43
2022/06/11 04:12:23;;;;;;;4.23;2.50;;;22.50;65.00;23.70;101364.00;;;;4968339;28;20276;-44
2022/06/11 04:14:49;;;;;;;4.43;2.80;;;22.40;65.00;23.70;101363.00;;;;4983022;28;20169;-44
2022/06/11 04:17:26;;;;;;;3.10;2.47;;;22.40;65.00;23.70;101358.00;;;;4968716;28;20181;-45
2022/06/11 04:19:52;;;;;;;3.60;2.90;;;22.40;65.00;23.70;101358.00;;;;4967927;28;20183;-43
2022/06/11 04:22:18;;;;;;;3.67;2.80;;;22.50;65.00;23.70;101351.00;;;;4982428;28;20232;-43
2022/06/11 04:24:44;;;;;;;2.93;2.63;;;22.40;64.80;23.70;101367.00;;;;4982689;28;20208;-45
2022/06/11 04:27:11;;;;;;;2.57;2.37;;;22.50;65.10;23.70;101367.00;;;;4982456;28;20256;-44
2022/06/11 04:29:46;;;;;;;2.93;2.50;;;22.50;64.90;23.60;101366.00;;;;4983026;28;20325;-44
2022/06/11 04:32:15;;;;;;;4.23;2.70;;;22.40;65.00;23.60;101369.00;;;;4967397;28;20241;-44
2022/06/11 04:34:42;;;;;;;3.83;2.80;;;22.40;64.70;23.60;101366.00;;;;4968045;28;20745;-43
2022/06/11 04:37:13;;;;;;;3.07;2.40;;;22.40;64.70;23.60;101374.00;;;;4967338;28;20188;-44
2022/06/11 04:39:43;;;;;;;2.77;2.50;;;22.40;64.70;23.60;101376.00;;;;4970352;28;20276;-45
2022/06/11 04:42:12;;;;;;;4.40;2.77;;;22.40;64.70;23.60;101383.00;;;;4985073;28;20214;-44
2022/06/11 04:44:39;;;;;;;3.53;2.60;;;22.40;64.70;23.60;101385.00;;;;4986732;28;20192;-44
2022/06/11 04:47:06;;;;;;;7.80;3.00;;;22.40;64.60;23.60;101384.00;;;;4986586;28;20181;-44
2022/06/11 04:49:32;;;;;;;8.00;3.00;;;22.40;64.80;23.60;101379.00;;;;4986918;28;20215;-43
2022/06/11 04:51:57;;;;;;;6.73;2.93;;;22.50;64.90;23.60;101385.00;;;;4986444;28;20188;-44
2022/06/11 04:54:23;;;;;;;9.43;3.20;;;22.50;64.80;23.60;101371.00;;;;4986674;28;20169;-44
2022/06/11 04:56:49;;;;;;;5.10;3.07;;;22.40;64.70;23.60;101371.00;;;;4987632;28;20223;-43
2022/06/11 04:59:15;;;;;;;5.03;2.80;;;22.40;64.70;23.60;101373.00;;;;4987993;28;20260;-44
2022/06/11 05:01:41;;;;;;;6.67;2.90;;;22.50;64.80;23.60;101373.00;;;;4987457;28;20254;-44
2022/06/11 05:04:08;;;;;;;8.20;2.90;;;22.50;64.90;23.60;101377.00;;;;4987113;28;20173;-44
2022/06/11 05:06:37;;;;;;;5.77;2.83;;;22.50;65.20;23.60;101370.00;;;;4987041;28;20175;-44
2022/06/11 05:09:03;;;;;;;5.70;2.50;;;22.40;65.20;23.40;101387.00;;;;4986353;28;20211;-44
2022/06/11 05:11:28;;;;;;;5.33;2.77;;;22.40;65.20;23.60;101383.00;;;;4987150;28;20188;-43
2022/06/11 05:13:54;;;;;;;5.13;2.83;;;22.40;65.20;23.60;101380.00;;;;4986390;28;20176;-43
2022/06/11 05:16:20;;;;;;;7.00;3.03;;;22.40;65.50;23.60;101386.00;;;;4986597;28;20199;-44
2022/06/11 05:18:45;;;;;;;3.43;2.43;;;22.40;65.20;23.60;101384.00;;;;4985150;28;20660;-43
2022/06/11 05:21:11;;;;;;;5.57;2.80;;;22.40;65.40;23.60;101381.00;;;;4985892;28;20552;-44
2022/06/11 05:23:37;;;;;;;3.87;2.40;;;22.40;65.40;23.60;101380.00;;;;4985889;28;20207;-44
2022/06/11 05:26:03;;;;;;;5.63;2.70;;;22.40;65.30;23.60;101389.00;;;;4986375;28;20187;-44
2022/06/11 05:28:30;;;;;;;4.00;2.40;;;22.40;65.30;23.60;101388.00;;;;4985266;28;20180;-45
2022/06/11 05:30:56;;;;;;;5.00;2.50;;;22.40;65.20;23.60;101382.00;;;;4984824;28;20192;-45
2022/06/11 05:33:22;;;;;;;4.73;2.97;;;22.40;65.40;23.60;101391.00;;;;4985852;28;20207;-43
2022/06/11 05:35:48;;;;;;;4.40;2.63;;;22.40;65.80;23.60;101387.00;;;;4985014;28;20173;-43
2022/06/11 05:38:18;;;;;;;3.93;2.80;;;22.30;65.50;23.60;101393.00;;;;4984815;28;20179;-44
2022/06/11 05:40:45;;;;;;;4.67;2.60;;;22.30;65.60;23.60;101400.00;;;;4985070;28;20177;-44
2022/06/11 05:43:12;;;;;;;5.10;2.90;;;22.30;65.60;23.60;101393.00;;;;4986136;28;20282;-44
2022/06/11 05:45:59;;;;;;;3.13;2.53;;;22.30;65.50;23.60;101264.00;;;;4996877;28;20280;-45
2022/06/11 05:48:29;;;;;;;4.30;2.60;;;22.30;66.00;23.60;101398.00;;;;5007440;28;20169;-44
2022/06/11 05:50:55;;;;;;;6.63;2.80;;;22.20;65.60;23.50;101401.00;;;;5007569;28;20206;-45
2022/06/11 05:53:22;;;;;;;3.43;2.53;;;22.20;65.70;23.50;101404.00;;;;5005680;28;20188;-45
2022/06/11 05:55:48;;;;;;;3.60;2.63;;;22.20;66.00;23.50;101410.00;;;;5007079;28;20425;-44
2022/06/11 05:58:19;;;;;;;4.57;2.70;;;22.20;65.50;23.50;101398.00;;;;4993036;28;20188;-45
2022/06/11 06:00:46;;;;;;;3.77;2.73;;;22.20;65.80;23.50;101392.00;;;;4989519;28;20176;-45
2022/06/11 06:03:12;;;;;;;3.87;2.50;;;22.20;66.00;23.60;101394.00;;;;4988818;28;20204;-45
2022/06/11 06:05:39;;;;;;;5.17;2.90;;;22.20;65.80;23.50;101398.00;;;;4990102;28;20184;-44
2022/06/11 06:08:06;;;;;;;5.60;3.00;;;22.20;65.60;23.50;101394.00;;;;4989628;28;20183;-43
2022/06/11 06:10:32;;;;;;;5.03;3.00;;;22.20;65.90;23.50;101395.00;;;;4989739;28;20736;-43
2022/06/11 06:12:58;;;;;;;4.53;2.57;;;22.20;65.80;23.50;101393.00;;;;4990411;28;20283;-44
2022/06/11 06:15:25;;;;;;;4.10;2.60;;;22.20;65.90;23.50;101401.00;;;;4990454;28;20179;-44
2022/06/11 06:17:51;;;;;;;3.03;2.60;;;22.20;66.30;23.50;101392.00;;;;4988391;28;20172;-43
2022/06/11 06:20:18;;;;;;;5.33;2.97;;;22.20;66.00;23.50;101396.00;;;;4989437;28;20625;-45
2022/06/11 06:22:44;;;;;;;4.93;2.90;;;22.30;67.20;23.50;101397.00;;;;4989108;28;20231;-43
2022/06/11 06:25:17;;;;;;;4.53;2.90;;;22.30;66.50;23.50;101402.00;;;;4989407;28;20180;-45
2022/06/11 06:27:42;;;;;;;3.93;2.60;;;22.30;67.40;23.50;101396.00;;;;4988050;28;20211;-45
2022/06/11 06:30:09;;;;;;;3.80;2.97;;;22.30;66.50;23.50;101394.00;;;;4989116;28;20219;-44
2022/06/11 06:32:34;;;;;;;4.47;3.03;;;22.30;66.60;23.50;101397.00;;;;4988647;28;20192;-44
2022/06/11 06:35:00;;;;;;;5.13;2.90;;;22.20;66.60;23.50;101396.00;;;;4988435;28;20174;-43
2022/06/11 06:37:26;;;;;;;3.10;2.50;;;22.20;66.30;23.50;101403.00;;;;4989098;28;20172;-43
2022/06/11 06:39:52;;;;;;;2.77;2.50;;;22.30;66.40;23.50;101406.00;;;;4989186;28;20227;-43
2022/06/11 06:42:17;;;;;;;4.07;2.60;;;22.30;66.40;23.50;101399.00;;;;4988783;28;20227;-43
2022/06/11 06:44:43;;;;;;;4.23;2.77;;;22.20;66.00;23.50;101404.00;;;;4988699;28;20207;-43
2022/06/11 06:47:09;;;;;;;3.13;2.40;;;22.20;65.80;23.40;101416.00;;;;4988182;28;20172;-43
2022/06/11 06:49:35;;;;;;;5.40;2.83;;;22.20;65.70;23.40;101343.00;;;;4987905;28;20219;-43
2022/06/11 06:52:01;;;;;;;3.27;2.67;;;22.20;65.50;23.30;101421.00;;;;4989218;28;20199;-43
2022/06/11 06:54:27;;;;;;;4.37;2.70;;;22.20;65.40;23.30;101415.00;;;;4988759;28;20709;-44
2022/06/11 06:56:52;;;;;;;2.73;2.40;;;22.10;65.40;23.30;101423.00;;;;4837195;28;20327;-45
2022/06/11 06:59:18;;;;;;;4.13;2.57;;;22.10;65.50;23.30;101427.00;;;;4987907;28;20212;-43
2022/06/11 07:01:45;;;;;;;3.50;2.70;;;22.20;65.50;23.30;101427.00;;;;4988524;28;20771;-43
2022/06/11 07:04:12;;;;;;;2.80;2.50;;;22.10;65.40;23.30;101423.00;;;;4988276;28;20184;-43
2022/06/11 07:06:40;;;;;;;4.53;2.70;;;22.10;65.40;23.30;101431.00;;;;4987196;28;20180;-43
2022/06/11 07:09:06;;;;;;;3.23;2.60;;;22.10;65.40;23.30;101425.00;;;;4987081;28;20727;-43
2022/06/11 07:11:32;;;;;;;3.10;2.67;;;22.10;65.50;23.20;101421.00;;;;4984259;28;20189;-43
2022/06/11 07:13:58;;;;;;;2.60;2.30;;;22.20;65.80;23.20;101429.00;;;;4991730;28;20176;-44
2022/06/11 07:16:38;;;;;;;3.87;2.77;;;22.20;65.60;23.20;101418.00;;;;4991292;28;20173;-44
2022/06/11 07:19:10;;;;;;;3.50;2.53;;;22.10;65.50;23.20;101417.00;;;;4990263;28;20203;-44
2022/06/11 07:21:47;;;;;;;3.03;2.30;;;22.10;65.60;23.20;101427.00;;;;4974447;28;20192;-45
2022/06/11 07:24:17;;;;;;;3.20;2.47;;;22.10;65.60;23.20;101427.00;;;;4975369;28;20238;-44
2022/06/11 07:26:46;;;;;;;3.30;2.60;;;22.10;65.40;23.20;101426.00;;;;4991271;28;20175;-44
2022/06/11 07:29:17;;;;;;;3.00;2.40;;;22.10;65.40;23.20;101419.00;;;;4989513;28;20184;-44
2022/06/11 07:31:44;;;;;;;3.20;2.40;;;22.10;65.20;23.20;101428.00;;;;4974035;28;20227;-43
2022/06/11 07:34:11;;;;;;;2.50;2.27;;;22.10;65.20;23.20;101424.00;;;;4989852;28;20167;-44
2022/06/11 07:36:37;;;;;;;3.47;2.47;;;22.10;65.40;23.30;101426.00;;;;4973571;28;20389;-44
2022/06/11 07:39:03;;;;;;;3.57;2.30;;;22.10;65.40;23.30;101432.00;;;;4989685;28;20545;-44
2022/06/11 07:41:28;;;;;;;3.23;2.40;;;22.10;65.40;23.20;101430.00;;;;4990850;28;20173;-44
2022/06/11 07:43:55;;;;;;;4.23;2.70;;;22.10;65.50;23.20;101425.00;;;;4990959;28;20192;-44
2022/06/11 07:46:21;;;;;;;2.93;2.30;;;22.10;65.50;23.20;101423.00;;;;4990787;28;20259;-44
2022/06/11 07:48:48;;;;;;;4.90;2.50;;;22.10;65.60;23.20;101422.00;;;;4990628;28;20630;-44
2022/06/11 07:51:18;;;;;;;3.07;2.50;;;22.10;65.50;23.20;101435.00;;;;4990995;28;20191;-44
2022/06/11 07:53:48;;;;;;;3.03;2.30;;;22.10;65.50;23.20;101422.00;;;;4990555;28;20246;-44
2022/06/11 07:56:14;;;;;;;3.67;2.40;;;22.10;65.60;23.20;101415.00;;;;4811181;28;23008;-43
2022/06/11 07:58:40;;;;;;;2.63;2.43;;;22.20;66.30;23.20;101426.00;;;;4989913;28;20177;-44
2022/06/11 08:01:06;;;;;;;3.53;2.50;;;22.20;65.50;23.30;101428.00;;;;4989438;28;20180;-44
2022/06/11 08:03:32;;;;;;;3.20;2.50;;;22.20;65.80;23.30;101429.00;;;;4990765;28;20192;-44
2022/06/11 08:05:59;;;;;;;2.77;2.47;;;22.20;65.80;23.30;101431.00;;;;4989271;28;20180;-43
2022/06/11 08:08:25;;;;;;;2.60;2.40;;;22.20;65.70;23.30;101420.00;;;;4990037;28;20192;-44
2022/06/11 08:10:51;;;;;;;2.93;2.40;;;22.20;65.80;23.30;101424.00;;;;4989253;28;20235;-43
2022/06/11 08:13:17;;;;;;;4.17;2.80;;;22.20;65.90;23.30;101428.00;;;;4990202;28;20212;-44
2022/06/11 08:15:45;;;;;;;3.83;2.80;;;22.20;65.90;23.30;101423.00;;;;4990498;28;20169;-44
2022/06/11 08:18:11;;;;;;;5.03;2.60;;;22.20;65.90;23.30;101423.00;;;;4990523;28;20173;-43
2022/06/11 08:20:37;;;;;;;3.57;2.40;;;22.20;66.00;23.30;101411.00;;;;4989728;28;20275;-43
2022/06/11 08:23:04;;;;;;;4.47;2.80;;;22.20;66.30;23.30;101411.00;;;;4990132;28;20258;-44
2022/06/11 08:25:30;;;;;;;5.10;2.83;;;22.20;66.40;23.30;101417.00;;;;4990486;28;20560;-44
2022/06/11 08:27:56;;;;;;;4.60;2.60;;;22.20;66.40;23.40;101418.00;;;;4990190;28;20176;-44
2022/06/11 08:30:24;;;;;;;7.70;3.40;;;22.20;66.60;23.40;101426.00;;;;4989581;28;20196;-43
2022/06/11 08:32:50;;;;;;;6.53;2.90;;;22.20;67.10;23.40;101423.00;;;;4989783;28;20212;-41
2022/06/11 08:35:18;;;;;;;7.60;3.17;;;22.20;67.10;23.40;101431.00;;;;4989678;28;20199;-44
2022/06/11 08:37:44;;;;;;;6.17;2.80;;;22.20;67.30;23.40;101431.00;;;;4989826;28;20168;-43
2022/06/11 08:40:37;;;;;;;4.50;2.67;;;22.30;67.30;23.50;101433.00;;;;4989941;28;20208;-45
2022/06/11 08:43:21;;;;;;;6.33;2.70;;;22.30;67.10;23.50;101423.00;;;;4988888;28;20208;-44
2022/06/11 08:45:50;;;;;;;7.63;2.80;;;22.40;67.10;23.50;101431.00;;;;4989678;28;20495;-44
2022/06/11 08:48:27;;;;;;;5.07;2.57;;;22.40;67.00;23.60;101424.00;;;;4988404;28;20292;-44
2022/06/11 08:51:15;;;;;;;3.13;2.40;;;22.40;67.00;23.60;101423.00;;;;4973334;28;20195;-44
2022/06/11 08:53:41;;;;;;;3.80;2.60;;;22.40;66.90;23.60;101426.00;;;;4987357;28;20192;-44
2022/06/11 08:56:38;;;;;;;3.23;2.40;;;22.50;67.00;23.60;101422.00;;;;4881862;28;23309;-43
2022/06/11 08:59:28;;;;;;;5.10;2.53;;;22.40;66.90;23.70;101418.00;;;;4974550;28;20156;-45
2022/06/11 09:02:32;;;;;;;5.53;2.90;;;22.40;67.10;23.60;101424.00;;;;4988845;28;20203;-43
2022/06/11 09:05:48;;;;;;;3.80;2.40;;;22.50;68.50;23.70;101430.00;;;;4977412;28;20191;-45
2022/06/11 09:08:48;;;;;;;4.97;2.70;;;22.50;67.70;23.70;101369.00;;;;4989139;28;20172;-45
2022/06/11 09:11:48;;;;;;;5.27;2.60;;;22.50;67.70;23.70;101428.00;;;;4988626;28;20261;-44
2022/06/11 09:14:23;;;;;;;10.30;3.03;;;22.60;68.60;23.70;101421.00;;;;4984214;28;20187;-44
2022/06/11 09:17:24;;;;;;;9.67;3.33;;;22.60;69.50;23.70;101443.00;;;;4993071;28;20164;-43
2022/06/11 09:20:04;;;;;;;5.03;3.10;;;22.60;69.50;23.70;101434.00;;;;4988006;28;20161;-46
2022/06/11 09:22:56;;;;;;;9.50;3.47;;;22.70;69.80;23.80;101427.00;;;;4988459;28;20218;-45
2022/06/11 09:25:43;;;;;;;9.63;3.40;;;22.70;70.10;23.80;101432.00;;;;4992408;28;20199;-45
2022/06/11 09:28:37;;;;;;;5.13;3.30;;;22.70;70.20;23.80;101432.00;;;;4988073;28;20648;-44
2022/06/11 09:31:34;;;;;;;5.93;3.27;;;22.70;70.40;23.80;101426.00;;;;4967757;28;20192;-45
2022/06/11 09:34:22;;;;;;;6.67;3.13;;;22.70;70.40;23.80;101435.00;;;;4989040;28;20222;-46
2022/06/11 09:37:17;;;;;;;5.53;3.20;;;22.70;70.50;23.90;101446.00;;;;4988563;28;20157;-46
2022/06/11 09:40:02;;;;;;;5.40;3.10;;;22.70;70.30;23.90;101444.00;;;;4987989;28;20820;-45
2022/06/11 09:43:02;;;;;;;6.73;3.30;;;22.70;70.30;23.90;101438.00;;;;4986664;28;20233;-45
2022/06/11 09:45:53;;;;;;;6.13;3.37;;;22.70;70.20;23.90;101440.00;;;;4972774;28;20165;-44
2022/06/11 09:48:33;;;;;;;6.83;3.47;;;22.70;70.10;23.90;101442.00;;;;4970750;28;20173;-45
2022/06/11 09:51:30;;;;;;;4.30;2.90;;;22.80;70.20;23.90;101379.00;;;;4986417;28;20176;-45
2022/06/11 09:54:30;;;;;;;5.83;3.00;;;22.80;70.10;24.00;101429.00;;;;4986385;28;20161;-45
2022/06/11 09:57:33;;;;;;;3.90;3.00;;;22.80;70.10;24.00;101444.00;;;;4974181;28;20657;-45
2022/06/11 10:00:13;;;;;;;3.30;2.80;;;22.80;70.10;24.00;101438.00;;;;4988230;28;20719;-45
2022/06/11 10:02:59;;;;;;;3.50;2.77;;;22.80;70.30;24.00;101457.00;;;;4988330;28;20299;-45
2022/06/11 10:05:47;;;;;;;4.73;3.17;;;22.80;69.90;24.00;101442.00;;;;4988499;28;20542;-46
2022/06/11 10:08:53;;;;;;;5.13;3.07;;;22.90;69.80;24.00;101448.00;;;;4973341;28;20722;-45
2022/06/11 10:11:36;;;;;;;3.43;2.77;;;22.80;69.70;24.00;101448.00;;;;4987935;28;20277;-44
2022/06/11 10:14:28;;;;;;;4.40;2.83;;;22.90;69.80;24.00;101423.00;;;;4988700;28;20157;-44
2022/06/11 10:17:36;;;;;;;3.70;2.70;;;22.80;70.50;24.10;101438.00;;;;4973992;28;20184;-44
2022/06/11 10:20:24;;;;;;;5.03;2.80;;;22.90;69.70;24.10;101443.00;;;;4989682;28;20160;-44
2022/06/11 10:23:10;;;;;;;3.67;2.73;;;22.90;69.60;24.10;101442.00;;;;4989055;28;20303;-44
2022/06/11 10:25:45;;;;;;;3.67;2.73;;;22.90;69.60;24.10;101445.00;;;;4987717;28;20180;-46
2022/06/11 10:28:31;;;;;;;3.23;2.80;;;22.90;69.60;24.10;101437.00;;;;4987721;28;20231;-44
2022/06/11 10:31:08;;;;;;;4.13;2.70;;;23.00;69.50;24.10;101448.00;;;;4975611;28;20192;-45
2022/06/11 10:33:44;;;;;;;3.50;2.47;;;23.00;69.60;24.10;101444.00;;;;4990955;28;20669;-44
2022/06/11 10:36:26;;;;;;;2.80;2.50;;;23.00;69.70;24.20;101449.00;;;;4976601;28;20160;-44
2022/06/11 10:39:20;;;;;;;3.60;2.50;;;23.00;69.60;24.20;101442.00;;;;4975255;28;20161;-46
2022/06/11 10:42:08;;;;;;;2.97;2.50;;;23.00;69.50;24.20;101441.00;;;;4992246;28;20744;-46
2022/06/11 10:44:50;;;;;;;2.80;2.53;;;23.00;69.40;24.20;101439.00;;;;4993387;28;20259;-45
2022/06/11 10:47:30;;;;;;;2.70;2.50;;;23.00;69.40;24.20;101436.00;;;;4990984;28;20180;-44
2022/06/11 10:50:18;;;;;;;2.87;2.50;;;23.00;69.50;24.20;101432.00;;;;4992602;28;20196;-44
2022/06/11 10:53:01;;;;;;;2.73;2.53;;;23.10;69.40;24.20;101429.00;;;;4992004;28;20739;-45
2022/06/11 10:55:38;;;;;;;3.07;2.40;;;23.10;69.40;24.30;101429.00;;;;4976419;28;20660;-45
2022/06/11 10:58:25;;;;;;;2.90;2.43;;;23.10;69.40;24.30;101424.00;;;;4990521;28;20239;-44
2022/06/11 11:00:55;;;;;;;2.60;2.40;;;23.10;69.30;24.30;101428.00;;;;4991193;28;20164;-45
2022/06/11 11:03:46;;;;;;;4.00;2.50;;;23.10;69.40;24.40;101430.00;;;;4975325;28;20239;-46
2022/06/11 11:06:37;;;;;;;2.60;2.33;;;23.20;69.40;24.40;101431.00;;;;4992149;28;20248;-45
2022/06/11 11:09:12;;;;;;;4.83;2.50;;;23.20;69.40;24.40;101424.00;;;;4992536;28;20195;-45
2022/06/11 11:11:49;;;;;;;2.87;2.50;;;23.20;69.30;24.40;101411.00;;;;4991744;28;20161;-45
2022/06/11 11:14:39;;;;;;;3.30;2.30;;;23.20;69.50;24.40;101423.00;;;;4975421;28;20394;-45
2022/06/11 11:17:19;;;;;;;2.90;2.43;;;23.20;69.30;24.40;101415.00;;;;4975855;28;20251;-45